sensor_id;sensor_type;location;lat;lon;timestamp;pressure;altitude;pressure_sealevel;temperature;humidity
36748;BME280;22716;51.556;5.080;2023-03-18T00:01:20;100095.88;;;13.32;95.42
36748;BME280;22716;51.556;5.080;2023-03-18T00:03:49;100089.78;;;13.30;95.60
36748;BME280;22716;51.556;5.080;2023-03-18T00:06:19;100084.38;;;13.34;95.81
36748;BME280;22716;51.556;5.080;2023-03-18T00:08:49;100082.63;;;13.35;95.69
36748;BME280;22716;51.556;5.080;2023-03-18T00:11:21;100086.91;;;13.37;95.80
36748;BME280;22716;51.556;5.080;2023-03-18T00:13:51;100079.34;;;13.28;95.94
36748;BME280;22716;51.556;5.080;2023-03-18T00:16:20;100091.59;;;13.29;96.20
36748;BME280;22716;51.556;5.080;2023-03-18T00:18:49;100073.50;;;13.19;96.68
36748;BME280;22716;51.556;5.080;2023-03-18T00:21:18;100086.44;;;13.26;96.79
36748;BME280;22716;51.556;5.080;2023-03-18T00:23:48;100082.00;;;13.27;96.92
36748;BME280;22716;51.556;5.080;2023-03-18T00:26:24;100090.75;;;13.27;96.98
36748;BME280;22716;51.556;5.080;2023-03-18T00:28:55;100080.41;;;13.23;97.15
36748;BME280;22716;51.556;5.080;2023-03-18T00:31:25;100089.09;;;13.25;97.58
36748;BME280;22716;51.556;5.080;2023-03-18T00:33:54;100092.94;;;13.15;97.75
36748;BME280;22716;51.556;5.080;2023-03-18T00:36:23;100085.06;;;13.15;97.74
36748;BME280;22716;51.556;5.080;2023-03-18T00:38:54;100099.88;;;13.17;98.34
36748;BME280;22716;51.556;5.080;2023-03-18T00:41:30;100103.47;;;13.15;98.31
36748;BME280;22716;51.556;5.080;2023-03-18T00:44:01;100102.59;;;13.14;98.43
36748;BME280;22716;51.556;5.080;2023-03-18T00:46:33;100094.19;;;13.03;98.96
36748;BME280;22716;51.556;5.080;2023-03-18T00:49:04;100112.19;;;13.15;98.65
36748;BME280;22716;51.556;5.080;2023-03-18T00:51:35;100109.63;;;13.14;99.31
36748;BME280;22716;51.556;5.080;2023-03-18T00:54:08;100106.28;;;13.07;99.45
36748;BME280;22716;51.556;5.080;2023-03-18T00:56:40;100104.56;;;13.08;99.65
36748;BME280;22716;51.556;5.080;2023-03-18T00:59:09;100109.03;;;13.04;99.53
36748;BME280;22716;51.556;5.080;2023-03-18T01:01:38;100104.59;;;13.06;99.95
36748;BME280;22716;51.556;5.080;2023-03-18T01:04:07;100104.59;;;13.06;100.00
36748;BME280;22716;51.556;5.080;2023-03-18T01:06:36;100101.97;;;13.06;100.00
36748;BME280;22716;51.556;5.080;2023-03-18T01:09:06;100098.59;;;13.01;100.00
36748;BME280;22716;51.556;5.080;2023-03-18T01:11:36;100091.88;;;12.92;100.00
36748;BME280;22716;51.556;5.080;2023-03-18T01:14:08;100097.94;;;12.94;100.00
36748;BME280;22716;51.556;5.080;2023-03-18T01:16:37;100102.38;;;12.92;100.00
36748;BME280;22716;51.556;5.080;2023-03-18T01:19:05;100098.84;;;12.93;100.00
36748;BME280;22716;51.556;5.080;2023-03-18T01:21:34;100106.78;;;12.92;100.00
36748;BME280;22716;51.556;5.080;2023-03-18T01:24:04;100105.94;;;12.91;100.00
36748;BME280;22716;51.556;5.080;2023-03-18T01:26:35;100093.81;;;12.86;100.00
36748;BME280;22716;51.556;5.080;2023-03-18T01:29:06;100093.91;;;12.83;100.00
36748;BME280;22716;51.556;5.080;2023-03-18T01:31:35;100092.22;;;12.82;100.00
36748;BME280;22716;51.556;5.080;2023-03-18T01:34:04;100100.13;;;12.80;100.00
36748;BME280;22716;51.556;5.080;2023-03-18T01:36:33;100093.97;;;12.81;100.00
36748;BME280;22716;51.556;5.080;2023-03-18T01:39:02;100086.03;;;12.83;100.00
36748;BME280;22716;51.556;5.080;2023-03-18T01:41:32;100090.47;;;12.82;100.00
36748;BME280;22716;51.556;5.080;2023-03-18T01:44:01;100088.66;;;12.83;100.00
36748;BME280;22716;51.556;5.080;2023-03-18T01:46:43;100092.13;;;12.85;100.00
36748;BME280;22716;51.556;5.080;2023-03-18T01:49:15;100094.69;;;12.86;100.00
36748;BME280;22716;51.556;5.080;2023-03-18T01:51:49;100084.44;;;12.79;100.00
36748;BME280;22716;51.556;5.080;2023-03-18T01:54:19;100101.91;;;12.80;100.00
36748;BME280;22716;51.556;5.080;2023-03-18T01:56:50;100096.75;;;12.77;100.00
36748;BME280;22716;51.556;5.080;2023-03-18T01:59:22;100098.47;;;12.78;100.00
36748;BME280;22716;51.556;5.080;2023-03-18T02:01:58;100095.84;;;12.78;100.00
36748;BME280;22716;51.556;5.080;2023-03-18T02:04:33;100095.16;;;12.71;100.00
36748;BME280;22716;51.556;5.080;2023-03-18T02:07:04;100092.53;;;12.71;100.00
36748;BME280;22716;51.556;5.080;2023-03-18T02:09:34;100099.53;;;12.72;100.00
36748;BME280;22716;51.556;5.080;2023-03-18T02:12:04;100096.91;;;12.72;100.00
36748;BME280;22716;51.556;5.080;2023-03-18T02:14:34;100086.53;;;12.68;100.00
36748;BME280;22716;51.556;5.080;2023-03-18T02:17:09;100104.78;;;12.72;100.00
36748;BME280;22716;51.556;5.080;2023-03-18T02:19:55;100095.16;;;12.71;100.00
36748;BME280;22716;51.556;5.080;2023-03-18T02:22:30;100100.50;;;12.68;100.00
36748;BME280;22716;51.556;5.080;2023-03-18T02:25:15;100093.50;;;12.69;100.00
36748;BME280;22716;51.556;5.080;2023-03-18T02:27:52;100098.03;;;12.64;100.00
36748;BME280;22716;51.556;5.080;2023-03-18T02:30:27;100108.47;;;12.67;100.00
36748;BME280;22716;51.556;5.080;2023-03-18T02:33:00;100097.50;;;12.53;100.00
36748;BME280;22716;51.556;5.080;2023-03-18T02:35:29;100111.28;;;12.61;100.00
36748;BME280;22716;51.556;5.080;2023-03-18T02:38:00;100111.34;;;12.59;100.00
36748;BME280;22716;51.556;5.080;2023-03-18T02:40:31;100114.84;;;12.58;100.00
36748;BME280;22716;51.556;5.080;2023-03-18T02:43:19;100109.69;;;12.55;100.00
36748;BME280;22716;51.556;5.080;2023-03-18T02:46:00;100114.13;;;12.53;100.00
36748;BME280;22716;51.556;5.080;2023-03-18T02:48:36;100122.94;;;12.51;100.00
36748;BME280;22716;51.556;5.080;2023-03-18T02:51:06;100123.88;;;12.50;100.00
36748;BME280;22716;51.556;5.080;2023-03-18T02:53:36;100110.91;;;12.44;100.00
36748;BME280;22716;51.556;5.080;2023-03-18T02:56:06;100121.28;;;12.48;100.00
36748;BME280;22716;51.556;5.080;2023-03-18T02:58:38;100128.34;;;12.46;100.00
36748;BME280;22716;51.556;5.080;2023-03-18T03:01:11;100135.47;;;12.43;100.00
36748;BME280;22716;51.556;5.080;2023-03-18T03:03:40;100129.44;;;12.39;100.00
36748;BME280;22716;51.556;5.080;2023-03-18T03:06:10;100139.13;;;12.37;100.00
36748;BME280;22716;51.556;5.080;2023-03-18T03:08:40;100135.69;;;12.35;100.00
36748;BME280;22716;51.556;5.080;2023-03-18T03:11:09;100134.84;;;12.33;100.00
36748;BME280;22716;51.556;5.080;2023-03-18T03:13:41;100147.09;;;12.34;100.00
36748;BME280;22716;51.556;5.080;2023-03-18T03:16:12;100147.25;;;12.29;100.00
36748;BME280;22716;51.556;5.080;2023-03-18T03:18:42;100155.06;;;12.31;100.00
36748;BME280;22716;51.556;5.080;2023-03-18T03:21:12;100153.44;;;12.27;100.00
36748;BME280;22716;51.556;5.080;2023-03-18T03:23:43;100148.22;;;12.25;100.00
36748;BME280;22716;51.556;5.080;2023-03-18T03:26:12;100150.94;;;12.22;100.00
36748;BME280;22716;51.556;5.080;2023-03-18T03:28:44;100152.75;;;12.20;100.00
36748;BME280;22716;51.556;5.080;2023-03-18T03:31:12;100144.97;;;12.16;100.00
36748;BME280;22716;51.556;5.080;2023-03-18T03:33:42;100145.16;;;12.10;100.00
36748;BME280;22716;51.556;5.080;2023-03-18T03:36:13;100148.63;;;12.12;100.00
36748;BME280;22716;51.556;5.080;2023-03-18T03:38:43;100154.69;;;12.14;100.00
36748;BME280;22716;51.556;5.080;2023-03-18T03:41:13;100155.66;;;12.10;100.00
36748;BME280;22716;51.556;5.080;2023-03-18T03:43:44;100145.22;;;12.07;100.00
36748;BME280;22716;51.556;5.080;2023-03-18T03:46:13;100148.72;;;12.07;100.00
36748;BME280;22716;51.556;5.080;2023-03-18T03:48:42;100145.22;;;12.07;100.00
36748;BME280;22716;51.556;5.080;2023-03-18T03:51:12;100149.66;;;12.06;100.00
36748;BME280;22716;51.556;5.080;2023-03-18T03:53:42;100152.38;;;12.02;100.00
36748;BME280;22716;51.556;5.080;2023-03-18T03:56:11;100151.59;;;11.98;100.00
36748;BME280;22716;51.556;5.080;2023-03-18T03:58:40;100145.53;;;11.96;100.00
36748;BME280;22716;51.556;5.080;2023-03-18T04:01:12;100151.59;;;11.98;100.00
36748;BME280;22716;51.556;5.080;2023-03-18T04:03:41;100154.28;;;11.97;100.00
36748;BME280;22716;51.556;5.080;2023-03-18T04:06:09;100152.63;;;11.93;100.00
36748;BME280;22716;51.556;5.080;2023-03-18T04:08:38;100150.94;;;11.90;100.00
36748;BME280;22716;51.556;5.080;2023-03-18T04:11:07;100156.09;;;11.95;100.00
36748;BME280;22716;51.556;5.080;2023-03-18T04:13:37;100159.59;;;11.94;100.00
36748;BME280;22716;51.556;5.080;2023-03-18T04:16:06;100149.19;;;11.91;100.00
36748;BME280;22716;51.556;5.080;2023-03-18T04:18:39;100161.28;;;11.96;100.00
36748;BME280;22716;51.556;5.080;2023-03-18T04:21:08;100152.69;;;11.90;100.00
36748;BME280;22716;51.556;5.080;2023-03-18T04:23:36;100154.59;;;11.85;100.00
36748;BME280;22716;51.556;5.080;2023-03-18T04:26:05;100168.44;;;11.90;100.00
36748;BME280;22716;51.556;5.080;2023-03-18T04:28:35;100166.91;;;11.83;100.00
36748;BME280;22716;51.556;5.080;2023-03-18T04:31:04;100169.63;;;11.78;100.00
36748;BME280;22716;51.556;5.080;2023-03-18T04:33:33;100186.91;;;11.87;100.00
36748;BME280;22716;51.556;5.080;2023-03-18T04:36:05;100191.44;;;11.82;100.00
36748;BME280;22716;51.556;5.080;2023-03-18T04:38:34;100182.75;;;11.78;100.00
36748;BME280;22716;51.556;5.080;2023-03-18T04:41:04;100194.06;;;11.82;100.00
36748;BME280;22716;51.556;5.080;2023-03-18T04:43:33;100186.31;;;11.75;100.00
36748;BME280;22716;51.556;5.080;2023-03-18T04:46:02;100194.94;;;11.80;100.00
36748;BME280;22716;51.556;5.080;2023-03-18T04:48:31;100186.25;;;11.78;100.00
36748;BME280;22716;51.556;5.080;2023-03-18T04:51:00;100183.69;;;11.77;100.00
36748;BME280;22716;51.556;5.080;2023-03-18T04:53:31;100184.59;;;11.74;100.00
36748;BME280;22716;51.556;5.080;2023-03-18T04:56:01;100177.78;;;11.66;100.00
36748;BME280;22716;51.556;5.080;2023-03-18T04:58:30;100179.66;;;11.62;100.00
36748;BME280;22716;51.556;5.080;2023-03-18T05:00:59;100190.84;;;11.69;100.00
36748;BME280;22716;51.556;5.080;2023-03-18T05:03:29;100198.78;;;11.66;100.00
36748;BME280;22716;51.556;5.080;2023-03-18T05:05:58;100208.41;;;11.65;100.00
36748;BME280;22716;51.556;5.080;2023-03-18T05:08:26;100212.75;;;11.68;100.00
36748;BME280;22716;51.556;5.080;2023-03-18T05:10:58;100190.22;;;11.59;100.00
36748;BME280;22716;51.556;5.080;2023-03-18T05:13:27;100196.16;;;11.66;100.00
36748;BME280;22716;51.556;5.080;2023-03-18T05:15:56;100190.03;;;11.65;100.00
36748;BME280;22716;51.556;5.080;2023-03-18T05:18:24;100197.84;;;11.68;100.00
36748;BME280;22716;51.556;5.080;2023-03-18T05:20:53;100186.56;;;11.65;100.00
36748;BME280;22716;51.556;5.080;2023-03-18T05:23:22;100191.78;;;11.66;100.00
36748;BME280;22716;51.556;5.080;2023-03-18T05:25:51;100200.47;;;11.68;100.00
36748;BME280;22716;51.556;5.080;2023-03-18T05:28:22;100185.78;;;11.61;100.00
36748;BME280;22716;51.556;5.080;2023-03-18T05:30:52;100189.19;;;11.65;100.00
36748;BME280;22716;51.556;5.080;2023-03-18T05:33:21;100178.09;;;11.54;100.00
36748;BME280;22716;51.556;5.080;2023-03-18T05:35:50;100201.47;;;11.63;100.00
36748;BME280;22716;51.556;5.080;2023-03-18T05:38:19;100200.72;;;11.59;100.00
36748;BME280;22716;51.556;5.080;2023-03-18T05:40:48;100182.66;;;11.47;100.00
36748;BME280;22716;51.556;5.080;2023-03-18T05:43:18;100199.06;;;11.55;100.00
36748;BME280;22716;51.556;5.080;2023-03-18T05:45:50;100207.81;;;11.54;100.00
36748;BME280;22716;51.556;5.080;2023-03-18T05:48:18;100205.31;;;11.50;100.00
36748;BME280;22716;51.556;5.080;2023-03-18T05:50:48;100210.56;;;11.50;100.00
36748;BME280;22716;51.556;5.080;2023-03-18T05:53:17;100221.13;;;11.47;100.00
36748;BME280;22716;51.556;5.080;2023-03-18T05:55:45;100212.53;;;11.42;100.00
36748;BME280;22716;51.556;5.080;2023-03-18T05:58:14;100216.97;;;11.38;100.00
36748;BME280;22716;51.556;5.080;2023-03-18T06:00:43;100222.22;;;11.37;100.00
36748;BME280;22716;51.556;5.080;2023-03-18T06:03:15;100212.88;;;11.27;100.00
36748;BME280;22716;51.556;5.080;2023-03-18T06:05:43;100228.53;;;11.30;100.00
36748;BME280;22716;51.556;5.080;2023-03-18T06:08:13;100232.03;;;11.30;100.00
36748;BME280;22716;51.556;5.080;2023-03-18T06:10:42;100225.06;;;11.27;100.00
36748;BME280;22716;51.556;5.080;2023-03-18T06:13:13;100223.34;;;11.27;100.00
36748;BME280;22716;51.556;5.080;2023-03-18T06:15:42;100215.66;;;11.19;100.00
36748;BME280;22716;51.556;5.080;2023-03-18T06:18:14;100230.44;;;11.21;100.00
36748;BME280;22716;51.556;5.080;2023-03-18T06:20:43;100227.00;;;11.19;100.00
36748;BME280;22716;51.556;5.080;2023-03-18T06:23:11;100240.09;;;11.21;100.00
36748;BME280;22716;51.556;5.080;2023-03-18T06:25:40;100227.81;;;11.21;100.00
36748;BME280;22716;51.556;5.080;2023-03-18T06:28:12;100236.56;;;11.22;100.00
36748;BME280;22716;51.556;5.080;2023-03-18T06:30:40;100233.91;;;11.23;100.00
36748;BME280;22716;51.556;5.080;2023-03-18T06:33:09;100242.66;;;11.22;100.00
36748;BME280;22716;51.556;5.080;2023-03-18T06:35:42;100234.00;;;11.19;100.00
36748;BME280;22716;51.556;5.080;2023-03-18T06:38:11;100237.53;;;11.18;100.00
36748;BME280;22716;51.556;5.080;2023-03-18T06:40:41;100245.28;;;11.24;100.00
36748;BME280;22716;51.556;5.080;2023-03-18T06:43:10;100247.78;;;11.29;100.00
36748;BME280;22716;51.556;5.080;2023-03-18T06:45:39;100247.66;;;11.33;100.00
36748;BME280;22716;51.556;5.080;2023-03-18T06:48:08;100249.38;;;11.36;100.00
36748;BME280;22716;51.556;5.080;2023-03-18T06:50:38;100249.31;;;11.37;100.00
36748;BME280;22716;51.556;5.080;2023-03-18T06:53:10;100240.34;;;11.47;100.00
36748;BME280;22716;51.556;5.080;2023-03-18T06:55:40;100262.69;;;11.63;100.00
36748;BME280;22716;51.556;5.080;2023-03-18T06:58:09;100256.72;;;11.57;100.00
36748;BME280;22716;51.556;5.080;2023-03-18T07:00:38;100259.31;;;11.58;100.00
36748;BME280;22716;51.556;5.080;2023-03-18T07:03:07;100271.50;;;11.61;100.00
36748;BME280;22716;51.556;5.080;2023-03-18T07:05:36;100267.94;;;11.65;100.00
36748;BME280;22716;51.556;5.080;2023-03-18T07:08:07;100276.56;;;11.70;100.00
36748;BME280;22716;51.556;5.080;2023-03-18T07:10:39;100273.91;;;11.71;100.00
36748;BME280;22716;51.556;5.080;2023-03-18T07:13:09;100278.34;;;11.68;100.00
36748;BME280;22716;51.556;5.080;2023-03-18T07:15:38;100275.69;;;11.71;100.00
36748;BME280;22716;51.556;5.080;2023-03-18T07:18:07;100277.47;;;11.67;100.00
36748;BME280;22716;51.556;5.080;2023-03-18T07:20:36;100283.56;;;11.69;100.00
36748;BME280;22716;51.556;5.080;2023-03-18T07:23:05;100285.03;;;11.81;100.00
36748;BME280;22716;51.556;5.080;2023-03-18T07:25:34;100286.63;;;11.88;100.00
36748;BME280;22716;51.556;5.080;2023-03-18T07:28:06;100288.13;;;11.98;100.00
36748;BME280;22716;51.556;5.080;2023-03-18T07:30:35;100292.50;;;11.98;100.00
36748;BME280;22716;51.556;5.080;2023-03-18T07:33:04;100290.66;;;12.03;100.00
36748;BME280;22716;51.556;5.080;2023-03-18T07:35:33;100292.31;;;12.05;100.00
36748;BME280;22716;51.556;5.080;2023-03-18T07:38:02;100301.59;;;12.18;100.00
36748;BME280;22716;51.556;5.080;2023-03-18T07:40:32;100304.22;;;12.20;100.00
36748;BME280;22716;51.556;5.080;2023-03-18T07:43:01;100301.53;;;12.21;100.00
36748;BME280;22716;51.556;5.080;2023-03-18T07:45:32;100314.41;;;12.32;100.00
36748;BME280;22716;51.556;5.080;2023-03-18T07:48:01;100314.25;;;12.38;100.00
36748;BME280;22716;51.556;5.080;2023-03-18T07:50:30;100313.13;;;12.47;100.00
36748;BME280;22716;51.556;5.080;2023-03-18T07:52:59;100313.84;;;12.53;100.00
36748;BME280;22716;51.556;5.080;2023-03-18T07:55:29;100311.69;;;12.67;100.00
36748;BME280;22716;51.556;5.080;2023-03-18T07:57:58;100311.84;;;12.93;100.00
36748;BME280;22716;51.556;5.080;2023-03-18T08:00:32;100308.63;;;13.15;100.00
36748;BME280;22716;51.556;5.080;2023-03-18T08:03:01;100309.03;;;13.00;100.00
36748;BME280;22716;51.556;5.080;2023-03-18T08:05:30;100307.47;;;12.92;100.00
36748;BME280;22716;51.556;5.080;2023-03-18T08:07:59;100322.13;;;13.01;100.00
36748;BME280;22716;51.556;5.080;2023-03-18T08:10:29;100306.69;;;12.89;100.00
36748;BME280;22716;51.556;5.080;2023-03-18T08:12:58;100308.16;;;12.99;100.00
36748;BME280;22716;51.556;5.080;2023-03-18T08:15:27;100304.75;;;12.96;100.00
36748;BME280;22716;51.556;5.080;2023-03-18T08:17:58;100301.81;;;13.08;100.00
36748;BME280;22716;51.556;5.080;2023-03-18T08:20:27;100305.47;;;13.01;100.00
36748;BME280;22716;51.556;5.080;2023-03-18T08:22:56;100302.13;;;12.96;100.00
36748;BME280;22716;51.556;5.080;2023-03-18T08:25:26;100303.97;;;12.92;100.00
36748;BME280;22716;51.556;5.080;2023-03-18T08:27:57;100312.38;;;13.05;100.00
36748;BME280;22716;51.556;5.080;2023-03-18T08:30:25;100312.97;;;13.16;100.00
36748;BME280;22716;51.556;5.080;2023-03-18T08:32:58;100290.38;;;13.07;100.00
36748;BME280;22716;51.556;5.080;2023-03-18T08:35:26;100320.69;;;13.22;100.00
36748;BME280;22716;51.556;5.080;2023-03-18T08:37:55;100320.81;;;13.17;100.00
36748;BME280;22716;51.556;5.080;2023-03-18T08:40:24;100316.25;;;13.24;100.00
36748;BME280;22716;51.556;5.080;2023-03-18T08:42:53;100317.06;;;13.26;100.00
36748;BME280;22716;51.556;5.080;2023-03-18T08:45:21;100321.78;;;13.44;100.00
36748;BME280;22716;51.556;5.080;2023-03-18T08:47:51;100323.19;;;13.56;100.00
36748;BME280;22716;51.556;5.080;2023-03-18T08:50:23;100325.38;;;13.69;100.00
36748;BME280;22716;51.556;5.080;2023-03-18T08:52:54;100326.84;;;13.78;100.00
36748;BME280;22716;51.556;5.080;2023-03-18T08:55:28;100337.88;;;13.90;100.00
36748;BME280;22716;51.556;5.080;2023-03-18T08:57:57;100337.59;;;13.98;100.00
36748;BME280;22716;51.556;5.080;2023-03-18T09:00:26;100334.88;;;14.01;100.00
36748;BME280;22716;51.556;5.080;2023-03-18T09:02:55;100329.81;;;13.95;100.00
36748;BME280;22716;51.556;5.080;2023-03-18T09:05:27;100338.66;;;13.92;100.00
36748;BME280;22716;51.556;5.080;2023-03-18T09:07:56;100344.63;;;13.97;100.00
36748;BME280;22716;51.556;5.080;2023-03-18T09:10:26;100331.66;;;13.91;100.00
36748;BME280;22716;51.556;5.080;2023-03-18T09:12:55;100335.06;;;13.95;100.00
36748;BME280;22716;51.556;5.080;2023-03-18T09:15:23;100346.94;;;14.08;100.00
36748;BME280;22716;51.556;5.080;2023-03-18T09:17:52;100350.88;;;14.21;100.00
36748;BME280;22716;51.556;5.080;2023-03-18T09:20:21;100335.53;;;14.35;100.00
36748;BME280;22716;51.556;5.080;2023-03-18T09:22:53;100340.44;;;14.46;100.00
36748;BME280;22716;51.556;5.080;2023-03-18T09:25:22;100350.81;;;14.50;100.00
36748;BME280;22716;51.556;5.080;2023-03-18T09:27:52;100339.44;;;14.50;100.00
36748;BME280;22716;51.556;5.080;2023-03-18T09:30:21;100333.13;;;14.54;100.00
36748;BME280;22716;51.556;5.080;2023-03-18T09:32:51;100333.66;;;14.64;100.00
36748;BME280;22716;51.556;5.080;2023-03-18T09:35:19;100340.59;;;14.66;100.00
36748;BME280;22716;51.556;5.080;2023-03-18T09:37:49;100322.09;;;14.68;100.00
36748;BME280;22716;51.556;5.080;2023-03-18T09:40:24;100327.56;;;14.86;100.00
36748;BME280;22716;51.556;5.080;2023-03-18T09:43:05;100321.31;;;14.89;100.00
36748;BME280;22716;51.556;5.080;2023-03-18T09:45:50;100310.72;;;14.90;100.00
36748;BME280;22716;51.556;5.080;2023-03-18T09:48:50;100325.16;;;15.03;100.00
36748;BME280;22716;51.556;5.080;2023-03-18T09:51:39;100325.16;;;15.03;100.00
36748;BME280;22716;51.556;5.080;2023-03-18T09:54:14;100343.50;;;15.08;100.00
36748;BME280;22716;51.556;5.080;2023-03-18T09:56:47;100331.19;;;15.07;100.00
36748;BME280;22716;51.556;5.080;2023-03-18T09:59:22;100335.03;;;14.98;100.00
36748;BME280;22716;51.556;5.080;2023-03-18T10:01:53;100345.19;;;15.09;100.00
36748;BME280;22716;51.556;5.080;2023-03-18T10:04:25;100324.59;;;14.95;100.00
36748;BME280;22716;51.556;5.080;2023-03-18T10:07:00;100336.34;;;15.11;100.00
36748;BME280;22716;51.556;5.080;2023-03-18T10:09:36;100346.88;;;15.11;100.00
36748;BME280;22716;51.556;5.080;2023-03-18T10:12:16;100350.25;;;15.15;100.00
36748;BME280;22716;51.556;5.080;2023-03-18T10:14:50;100342.50;;;15.10;100.00
36748;BME280;22716;51.556;5.080;2023-03-18T10:17:29;100350.25;;;15.15;100.00
36748;BME280;22716;51.556;5.080;2023-03-18T10:20:00;100341.38;;;15.18;100.00
36748;BME280;22716;51.556;5.080;2023-03-18T10:22:51;100344.69;;;15.23;100.00
36748;BME280;22716;51.556;5.080;2023-03-18T10:25:26;100354.09;;;15.30;100.00
36748;BME280;22716;51.556;5.080;2023-03-18T10:28:08;100345.22;;;15.32;100.00
36748;BME280;22716;51.556;5.080;2023-03-18T10:30:51;100350.50;;;15.32;100.00
36748;BME280;22716;51.556;5.080;2023-03-18T10:33:32;100350.66;;;15.28;100.00
36748;BME280;22716;51.556;5.080;2023-03-18T10:36:06;100336.56;;;15.29;100.00
36748;BME280;22716;51.556;5.080;2023-03-18T10:38:42;100339.94;;;15.32;100.00
36748;BME280;22716;51.556;5.080;2023-03-18T10:41:19;100309.88;;;15.13;100.00
36748;BME280;22716;51.556;5.080;2023-03-18T10:43:52;100340.91;;;15.30;100.00
36748;BME280;22716;51.556;5.080;2023-03-18T10:46:23;100336.56;;;15.29;100.00
36748;BME280;22716;51.556;5.080;2023-03-18T10:48:57;100344.38;;;15.32;100.00
36748;BME280;22716;51.556;5.080;2023-03-18T10:51:31;100340.91;;;15.30;100.00
36748;BME280;22716;51.556;5.080;2023-03-18T10:54:08;100350.31;;;15.37;100.00
36748;BME280;22716;51.556;5.080;2023-03-18T10:56:40;100351.22;;;15.36;100.00
36748;BME280;22716;51.556;5.080;2023-03-18T10:59:16;100341.84;;;15.29;100.00
36748;BME280;22716;51.556;5.080;2023-03-18T11:01:49;100347.13;;;15.29;100.00
36748;BME280;22716;51.556;5.080;2023-03-18T11:04:21;100352.09;;;15.36;100.00
36748;BME280;22716;51.556;5.080;2023-03-18T11:06:54;100346.78;;;15.38;100.00
36748;BME280;22716;51.556;5.080;2023-03-18T11:09:30;100350.44;;;15.34;100.00
36748;BME280;22716;51.556;5.080;2023-03-18T11:12:03;100351.34;;;15.33;100.00
36748;BME280;22716;51.556;5.080;2023-03-18T11:14:35;100349.00;;;15.25;100.00
36748;BME280;22716;51.556;5.080;2023-03-18T11:17:18;100357.06;;;15.21;100.00
36748;BME280;22716;51.556;5.080;2023-03-18T11:19:57;100355.41;;;15.18;100.00
36748;BME280;22716;51.556;5.080;2023-03-18T11:22:30;100318.53;;;14.93;100.00
36748;BME280;22716;51.556;5.080;2023-03-18T11:25:11;100359.78;;;15.19;100.00
36748;BME280;22716;51.556;5.080;2023-03-18T11:27:42;100354.81;;;15.11;100.00
36748;BME280;22716;51.556;5.080;2023-03-18T11:30:19;100352.28;;;15.08;100.00
36748;BME280;22716;51.556;5.080;2023-03-18T11:32:52;100357.69;;;15.04;100.00
36748;BME280;22716;51.556;5.080;2023-03-18T11:35:24;100359.53;;;15.02;100.00
36748;BME280;22716;51.556;5.080;2023-03-18T11:38:02;100352.53;;;15.01;100.00
36748;BME280;22716;51.556;5.080;2023-03-18T11:40:32;100364.84;;;15.00;100.00
36748;BME280;22716;51.556;5.080;2023-03-18T11:43:02;100358.88;;;14.95;100.00
36748;BME280;22716;51.556;5.080;2023-03-18T11:45:52;100365.06;;;14.94;100.00
36748;BME280;22716;51.556;5.080;2023-03-18T11:48:31;100354.91;;;14.84;100.00
36748;BME280;22716;51.556;5.080;2023-03-18T11:51:17;100369.78;;;14.86;100.00
36748;BME280;22716;51.556;5.080;2023-03-18T11:54:01;100366.44;;;14.81;100.00
36748;BME280;22716;51.556;5.080;2023-03-18T11:56:38;100375.34;;;14.77;100.00
36748;BME280;22716;51.556;5.080;2023-03-18T11:59:27;100374.69;;;14.71;100.00
36748;BME280;22716;51.556;5.080;2023-03-18T12:02:19;100380.84;;;14.71;100.00
36748;BME280;22716;51.556;5.080;2023-03-18T12:05:01;100371.34;;;14.67;100.00
36748;BME280;22716;51.556;5.080;2023-03-18T12:07:44;100375.75;;;14.67;100.00
36748;BME280;22716;51.556;5.080;2023-03-18T12:10:22;100367.06;;;14.63;100.00
36748;BME280;22716;51.556;5.080;2023-03-18T12:13:07;100374.19;;;14.61;100.00
36748;BME280;22716;51.556;5.080;2023-03-18T12:15:46;100371.78;;;14.53;100.00
36748;BME280;22716;51.556;5.080;2023-03-18T12:18:43;100376.44;;;14.47;100.00
36748;BME280;22716;51.556;5.080;2023-03-18T12:21:29;100365.91;;;14.45;100.00
36748;BME280;22716;51.556;5.080;2023-03-18T12:24:15;100375.69;;;14.42;100.00
36748;BME280;22716;51.556;5.080;2023-03-18T12:26:52;100361.94;;;14.34;100.00
36748;BME280;22716;51.556;5.080;2023-03-18T12:29:58;100372.53;;;14.32;100.00
36748;BME280;22716;51.556;5.080;2023-03-18T12:32:34;100366.38;;;14.32;100.00
36748;BME280;22716;51.556;5.080;2023-03-18T12:35:24;100361.88;;;14.35;100.00
36748;BME280;22716;51.556;5.080;2023-03-18T12:38:23;100360.19;;;14.33;100.00
36748;BME280;22716;51.556;5.080;2023-03-18T12:41:04;100361.94;;;14.34;100.00
36748;BME280;22716;51.556;5.080;2023-03-18T12:43:53;100365.25;;;14.39;100.00
36748;BME280;22716;51.556;5.080;2023-03-18T12:46:27;100370.28;;;14.46;100.00
36748;BME280;22716;51.556;5.080;2023-03-18T12:49:02;100359.66;;;14.49;100.00
36748;BME280;22716;51.556;5.080;2023-03-18T12:51:44;100358.69;;;14.52;100.00
36748;BME280;22716;51.556;5.080;2023-03-18T12:54:20;100350.69;;;14.53;100.00
36748;BME280;22716;51.556;5.080;2023-03-18T12:56:55;100356.63;;;14.60;100.00
36748;BME280;22716;51.556;5.080;2023-03-18T12:59:30;100351.16;;;14.66;100.00
36748;BME280;22716;51.556;5.080;2023-03-18T13:02:18;100344.97;;;14.67;100.00
36748;BME280;22716;51.556;5.080;2023-03-18T13:04:52;100336.03;;;14.71;100.00
36748;BME280;22716;51.556;5.080;2023-03-18T13:07:33;100326.13;;;14.78;100.00